TimeMDT,TemperatureF,Dew PointF,Humidity,Sea Level PressureIn,VisibilityMPH,Wind Direction,Wind SpeedMPH,Gust SpeedMPH,PrecipitationIn,Events,Conditions,WindDirDegrees,DateUTC
12:15 AM,60.8,60.8,100,29.73,-9999.0,SW,12.7,-,0.02,,Overcast,220,2012-10-16 06:15:00
12:35 AM,60.8,60.8,100,29.75,-9999.0,West,11.5,21.9,0.03,,Overcast,260,2012-10-16 06:35:00
12:55 AM,60.8,60.8,100,29.76,-9999.0,WSW,13.8,19.6,0.03,,Overcast,240,2012-10-16 06:55:00
1:15 AM,60.8,60.8,100,29.77,-9999.0,West,9.2,17.3,N/A,,Overcast,270,2012-10-16 07:15:00
1:35 AM,60.8,60.8,100,29.78,-9999.0,WSW,12.7,-,N/A,,Unknown,250,2012-10-16 07:35:00
1:55 AM,59.0,59.0,100,29.79,-9999.0,West,8.1,-,N/A,,Unknown,260,2012-10-16 07:55:00
2:15 AM,59.0,59.0,100,29.81,-9999.0,WSW,9.2,-,N/A,,Unknown,240,2012-10-16 08:15:00
2:35 AM,59.0,59.0,100,29.81,-9999.0,WSW,10.4,-,N/A,,Unknown,250,2012-10-16 08:35:00
2:55 AM,59.0,57.2,94,29.83,-9999.0,West,9.2,-,N/A,,Unknown,260,2012-10-16 08:55:00
3:15 AM,59.0,57.2,94,29.84,-9999.0,West,5.8,-,N/A,,Unknown,280,2012-10-16 09:15:00
3:35 AM,57.2,55.4,94,29.85,-9999.0,West,4.6,-,N/A,,Unknown,270,2012-10-16 09:35:00
3:55 AM,57.2,55.4,94,29.86,-9999.0,SW,3.5,-,N/A,,Unknown,230,2012-10-16 09:55:00
4:15 AM,57.2,55.4,94,29.87,-9999.0,Calm,Calm,-,N/A,,Overcast,0,2012-10-16 10:15:00
4:35 AM,57.2,55.4,94,29.88,-9999.0,Calm,Calm,-,N/A,,Overcast,0,2012-10-16 10:35:00
4:55 AM,57.2,55.4,94,29.88,-9999.0,Calm,Calm,-,N/A,,Unknown,0,2012-10-16 10:55:00
5:15 AM,57.2,55.4,94,29.90,-9999.0,SW,4.6,-,N/A,,Overcast,220,2012-10-16 11:15:00
5:35 AM,57.2,55.4,94,29.92,-9999.0,NW,4.6,-,0.02,,Unknown,310,2012-10-16 11:35:00
6:15 AM,55.4,53.6,94,29.94,-9999.0,Calm,Calm,-,N/A,,Unknown,0,2012-10-16 12:15:00
6:35 AM,55.4,53.6,94,29.95,-9999.0,Calm,Calm,-,N/A,,Unknown,0,2012-10-16 12:35:00
6:55 AM,55.4,53.6,94,29.96,-9999.0,SSW,3.5,-,N/A,,Unknown,200,2012-10-16 12:55:00
7:15 AM,55.4,53.6,94,29.98,-9999.0,Calm,Calm,-,N/A,,Overcast,0,2012-10-16 13:15:00
7:35 AM,55.4,53.6,94,29.99,-9999.0,Calm,Calm,-,N/A,,Unknown,0,2012-10-16 13:35:00
7:55 AM,55.4,53.6,94,30.00,-9999.0,Calm,Calm,-,0.01,,Unknown,0,2012-10-16 13:55:00
8:15 AM,55.4,53.6,94,30.01,-9999.0,Calm,Calm,-,N/A,,Unknown,0,2012-10-16 14:15:00
8:35 AM,55.4,53.6,94,30.03,-9999.0,Calm,Calm,-,N/A,,Overcast,0,2012-10-16 14:35:00
8:55 AM,55.4,51.8,88,30.04,-9999.0,Calm,Calm,-,N/A,,Unknown,0,2012-10-16 14:55:00
9:15 AM,53.6,51.8,94,30.06,-9999.0,Calm,Calm,-,N/A,,Unknown,0,2012-10-16 15:15:00
9:35 AM,53.6,51.8,94,30.08,-9999.0,Calm,Calm,-,N/A,,Unknown,0,2012-10-16 15:35:00
9:55 AM,53.6,51.8,94,30.09,-9999.0,SSE,3.5,-,N/A,,Unknown,150,2012-10-16 15:55:00
10:15 AM,53.6,53.6,100,30.10,-9999.0,SSE,4.6,-,N/A,,Unknown,150,2012-10-16 16:15:00
10:35 AM,55.4,53.6,94,30.12,-9999.0,SSE,4.6,-,N/A,,Overcast,160,2012-10-16 16:35:00
10:55 AM,55.4,53.6,94,30.13,-9999.0,Calm,Calm,-,N/A,,Overcast,0,2012-10-16 16:55:00
11:15 AM,55.4,51.8,88,30.14,-9999.0,SE,4.6,-,N/A,,Unknown,140,2012-10-16 17:15:00
11:35 AM,57.2,51.8,82,30.16,-9999.0,SE,3.5,-,N/A,,Unknown,140,2012-10-16 17:35:00
11:55 AM,59.0,48.2,67,30.17,-9999.0,WNW,9.2,-,N/A,,Overcast,290,2012-10-16 17:55:00
12:15 PM,59.0,48.2,67,30.18,-9999.0,WNW,5.8,-,N/A,,Overcast,300,2012-10-16 18:15:00
12:35 PM,57.2,46.4,67,30.19,-9999.0,WSW,8.1,-,N/A,,Overcast,240,2012-10-16 18:35:00
12:55 PM,57.2,48.2,72,30.19,10.0,WSW,4.6,-,N/A,,Overcast,240,2012-10-16 18:55:00
1:15 PM,59.0,48.2,67,30.20,10.0,SW,3.5,-,N/A,,Scattered Clouds,230,2012-10-16 19:15:00
1:35 PM,60.8,46.4,59,30.21,10.0,Calm,Calm,-,N/A,,Mostly Cloudy,0,2012-10-16 19:35:00
1:55 PM,60.8,46.4,59,30.21,10.0,NW,9.2,-,N/A,,Mostly Cloudy,310,2012-10-16 19:55:00
2:15 PM,59.0,46.4,63,30.21,10.0,NW,9.2,-,N/A,,Overcast,310,2012-10-16 20:15:00
2:35 PM,59.0,46.4,63,30.21,10.0,NNW,10.4,-,N/A,,Overcast,330,2012-10-16 20:35:00
2:55 PM,60.8,46.4,59,30.21,10.0,NNW,9.2,-,N/A,,Mostly Cloudy,330,2012-10-16 20:55:00
3:15 PM,62.6,46.4,55,30.21,-9999.0,WNW,4.6,-,N/A,,Overcast,300,2012-10-16 21:15:00
3:35 PM,62.6,48.2,59,30.21,-9999.0,WSW,10.4,-,N/A,,Overcast,250,2012-10-16 21:35:00
3:55 PM,62.6,46.4,55,30.22,-9999.0,West,9.2,-,N/A,,Mostly Cloudy,260,2012-10-16 21:55:00
4:15 PM,60.8,46.4,59,30.22,-9999.0,WSW,11.5,-,N/A,,Mostly Cloudy,240,2012-10-16 22:15:00
4:35 PM,60.8,46.4,59,30.23,-9999.0,West,8.1,-,N/A,,Scattered Clouds,260,2012-10-16 22:35:00
6:15 PM,59.0,50.0,72,30.25,-9999.0,SW,5.8,-,N/A,,Unknown,220,2012-10-17 00:15:00
6:35 PM,57.2,50.0,77,30.25,-9999.0,SSW,4.6,-,N/A,,Unknown,210,2012-10-17 00:35:00
6:55 PM,55.4,50.0,82,30.26,-9999.0,WNW,9.2,16.1,N/A,,Overcast,290,2012-10-17 00:55:00
7:15 PM,55.4,50.0,82,30.26,-9999.0,NNW,3.5,-,N/A,,Overcast,340,2012-10-17 01:15:00
7:35 PM,55.4,50.0,82,30.27,-9999.0,Calm,Calm,-,N/A,,Overcast,0,2012-10-17 01:35:00
7:55 PM,55.4,50.0,82,30.27,-9999.0,Calm,Calm,-,N/A,,Overcast,0,2012-10-17 01:55:00
8:15 PM,53.6,51.8,94,30.27,-9999.0,Calm,Calm,-,N/A,,Overcast,0,2012-10-17 02:15:00
8:35 PM,53.6,51.8,94,30.28,-9999.0,Calm,Calm,-,N/A,,Unknown,0,2012-10-17 02:35:00
8:55 PM,53.6,51.8,94,30.29,-9999.0,Calm,Calm,-,N/A,,Overcast,0,2012-10-17 02:55:00
9:35 PM,51.8,51.8,100,30.29,-9999.0,Calm,Calm,-,N/A,,Overcast,0,2012-10-17 03:35:00
9:55 PM,51.8,50.0,94,30.29,-9999.0,Calm,Calm,-,N/A,,Overcast,0,2012-10-17 03:55:00
10:15 PM,50.0,50.0,100,30.29,-9999.0,Calm,Calm,-,N/A,,Unknown,0,2012-10-17 04:15:00
10:35 PM,50.0,50.0,100,30.29,-9999.0,Calm,Calm,-,N/A,,Unknown,0,2012-10-17 04:35:00
10:55 PM,48.2,48.2,100,30.30,-9999.0,Calm,Calm,-,N/A,,Mostly Cloudy,0,2012-10-17 04:55:00
11:15 PM,48.2,48.2,100,30.30,-9999.0,Calm,Calm,-,N/A,,Unknown,0,2012-10-17 05:15:00
11:35 PM,46.4,46.4,100,30.30,-9999.0,Calm,Calm,-,N/A,,Unknown,0,2012-10-17 05:35:00
11:55 PM,46.4,46.4,100,30.32,-9999.0,Calm,Calm,-,N/A,,Unknown,0,2012-10-17 05:55:00